Impacts METAR Board INFO
IDs:

KBOS - Boston/Logan Intl, MA, US

Updated at: 0823 UTC 12 Dec 2017
Potential Impact None Slight Moderate High
Time11/20Z 11/21Z 11/22Z 11/23Z 12/00Z 12/01Z 12/02Z 12/03Z 12/04Z 12/05Z 12/06Z 12/07Z 12/08Z
VIS10 10 10 10 10 10 10 10 10 10 10 10 10
CIG-- -- 170 170 170 150 150 130 130 130 90 110 43
CoverSCTSCTBKNBKNBKNBKNOVCOVCOVCOVCOVCOVCOVC
FltCatVFRVFRVFRVFRVFRVFRVFRVFRVFRVFRVFRVFRVFR
WX--------------------------
WDir270300280290300290034020201101400
WSpd9 6 6 7 4 4 0 4 5 3 5 6 0
WGst-- -- -- -- -- -- -- -- -- -- -- -- --
Raw hourly METARs
KBOS 111954Z 27009KT 10SM FEW044 SCT200 03/M07 A2997 RMK AO2 SLP146 T00331067
KBOS 112054Z 30006KT 10SM FEW044 SCT200 03/M07 A2999 RMK AO2 SLP154 T00281067 53011
KBOS 112154Z 28006KT 10SM FEW027 SCT044 BKN170 BKN250 02/M07 A3001 RMK AO2 SLP160 T00221067
KBOS 112254Z 29007KT 10SM FEW027 SCT050 BKN170 02/M07 A3003 RMK AO2 SLP167 T00221072
KBOS 112354Z 30004KT 10SM FEW045 BKN170 02/M08 A3002 RMK AO2 SLP166 T00171078 10039 20017 50012
KBOS 120054Z 29004KT 10SM FEW045 BKN150 02/M09 A3002 RMK AO2 SLP165 T00221089
KBOS 120154Z 00000KT 10SM FEW045 OVC150 02/M09 A3003 RMK AO2 SLP167 T00221089
KBOS 120254Z 34004KT 10SM FEW045 OVC130 02/M07 A3002 RMK AO2 SLP165 T00171072 58001
KBOS 120354Z 02005KT 10SM FEW045 OVC130 01/M04 A3001 RMK AO2 SLP161 T00061044
KBOS 120454Z 02003KT 10SM FEW045 OVC130 01/M04 A3000 RMK AO2 SLP158 T00111039 400390000
KBOS 120554Z 11005KT 10SM BKN090 OVC110 02/M05 A2999 RMK AO2 SLP154 T00171050 10022 20000 58011
KBOS 120654Z 14006KT 10SM SCT075 OVC110 02/M04 A2997 RMK AO2 SLP147 T00171044
KBOS 120754Z 00000KT 10SM BKN043 OVC049 02/M04 A2996 RMK AO2 SLP145 T00221039